Delavan, Wisconsin
Current Conditions -  °F | °C
As of 4:15 PM on Saturday 20 Dec 2014 (Local Time) from KBUU Reporting Station
Overcast Overcast  
Wind Chill: 29°   Ceiling: 5500
Heat Index: 29°   Visibility: 7mi
Dew Point: 25°   Wind: 0mph
Humidity: 83%   Direction: NA
Pressure: 30.23"   Gusts: NA
Location:  42.63°N, 88.65°W
Report Text: KBUU 202215Z AUTO 00000KT 7SM SCT026 BKN055 OVC070 M01/M04 A3023 RMK AO2 T10141040
Loading
Personal Weather Stations






























Interactive Weather Map New forecast layout! Learn more

10-Day Weather Forecast

Advertisements
Track Severe Weather on mobile